Strona główna
METAR-TAF:

METAR-TAF

Lotnisko :

Port lotniczy Kota Kinabalu

Kota Kinabalu, Malezja

Szerokość geograficzna: 05-56N, Długość geograficzna: 116-03E, wysokość: 3 m

Aktualna obserwacja pogody

Raport powstał 20 minut temu, godzina 21:30 UTC
Wiatr 2 kt z kierunków zmiennych
Temperatura 23°C
Wilgotność 94%
Ciśnienie 1009 hPa
Widzialność 10 km lub więcej
Mało chmury na wysokości 1500 ft

METAR: WBKK 292130Z VRB02KT 9999 FEW015 23/22 Q1009 NOSIG

czas: 05:50 (21:50 UTC)

Prognoza

Raport powstał 4 godziny i 50 minut temu, godzina 17:00 UTC
Prognoza ważna od 29 godzina 18 UTC do 30 godzina 18 UTC
Wiatr 5 kt od wschodnio-południowy wschód
Widzialność 10 km lub więcej
Mało chmury na wysokości 1400 ft
Stopniowe zmiany
od 30 godzina 02 UTC do 30 godzina 04 UTC
Wiatr 5 kt od zachodnio-północny zachód

TAF: WBKK 291700Z 2918/3018 11005KT 9999 FEW014 BECMG 3002/3004 29005KT

Obserwacja i prognoza pogody dla ponad 4000 lotnisk (raport METAR i TAF).

Dostępne stacje oznaczono żółtymi i czerwonymi punktami na mapie.

Najedź kursorem aby zobaczyć nazwę stacji.

Kliknij aby zobaczyć obserwacje i prognozy pogody.

Aby zmienić mapę: kliknij na zielony przycisk z czarnym krzyżykiem, aby powiększyć; na zielony przycisk z myślnikiem, aby pomniejszyć; na zielone strzałki, aby przejść do map sąsiednich.


METAR-TAF: